sensor_id;sensor_type;location;lat;lon;timestamp;P1;durP1;ratioP1;P2;durP2;ratioP2
23163;SDS011;31429;42.674;23.350;2024-03-02T00:00:58;44.08;;;29.67;;
23163;SDS011;31429;42.674;23.350;2024-03-02T00:01:59;44.13;;;30.37;;
23163;SDS011;31429;42.674;23.350;2024-03-02T00:02:59;44.10;;;30.23;;
23163;SDS011;31429;42.674;23.350;2024-03-02T00:04:00;42.87;;;30.23;;
23163;SDS011;31429;42.674;23.350;2024-03-02T00:05:21;41.95;;;28.38;;
23163;SDS011;31429;42.674;23.350;2024-03-02T00:06:42;40.55;;;29.25;;
23163;SDS011;31429;42.674;23.350;2024-03-02T00:07:43;42.03;;;28.77;;
23163;SDS011;31429;42.674;23.350;2024-03-02T00:08:45;41.30;;;28.63;;
23163;SDS011;31429;42.674;23.350;2024-03-02T00:09:46;43.27;;;28.70;;
23163;SDS011;31429;42.674;23.350;2024-03-02T00:10:46;41.37;;;29.00;;
23163;SDS011;31429;42.674;23.350;2024-03-02T00:11:47;45.40;;;29.97;;
23163;SDS011;31429;42.674;23.350;2024-03-02T00:12:49;39.27;;;28.97;;
23163;SDS011;31429;42.674;23.350;2024-03-02T00:13:52;37.97;;;27.88;;
23163;SDS011;31429;42.674;23.350;2024-03-02T00:14:54;39.45;;;29.77;;
23163;SDS011;31429;42.674;23.350;2024-03-02T00:15:55;42.57;;;30.17;;
23163;SDS011;31429;42.674;23.350;2024-03-02T00:17:35;40.05;;;28.27;;
23163;SDS011;31429;42.674;23.350;2024-03-02T00:18:36;44.50;;;29.60;;
23163;SDS011;31429;42.674;23.350;2024-03-02T00:19:38;47.63;;;29.08;;
23163;SDS011;31429;42.674;23.350;2024-03-02T00:20:40;45.35;;;30.90;;
23163;SDS011;31429;42.674;23.350;2024-03-02T00:21:41;43.10;;;29.77;;
23163;SDS011;31429;42.674;23.350;2024-03-02T00:22:42;45.47;;;31.37;;
23163;SDS011;31429;42.674;23.350;2024-03-02T00:23:42;43.57;;;30.27;;
23163;SDS011;31429;42.674;23.350;2024-03-02T00:24:43;43.17;;;28.87;;
23163;SDS011;31429;42.674;23.350;2024-03-02T00:25:44;43.57;;;30.53;;
23163;SDS011;31429;42.674;23.350;2024-03-02T00:26:48;43.92;;;30.38;;
23163;SDS011;31429;42.674;23.350;2024-03-02T00:27:50;41.53;;;30.90;;
23163;SDS011;31429;42.674;23.350;2024-03-02T00:28:51;43.03;;;29.58;;
23163;SDS011;31429;42.674;23.350;2024-03-02T00:29:55;45.15;;;30.70;;
23163;SDS011;31429;42.674;23.350;2024-03-02T00:31:16;44.88;;;30.17;;
23163;SDS011;31429;42.674;23.350;2024-03-02T00:32:40;44.95;;;29.13;;
23163;SDS011;31429;42.674;23.350;2024-03-02T00:34:00;44.15;;;30.38;;
23163;SDS011;31429;42.674;23.350;2024-03-02T00:35:45;40.15;;;28.73;;
23163;SDS011;31429;42.674;23.350;2024-03-02T00:36:46;41.90;;;28.90;;
23163;SDS011;31429;42.674;23.350;2024-03-02T00:37:46;42.70;;;29.37;;
23163;SDS011;31429;42.674;23.350;2024-03-02T00:39:07;41.97;;;28.25;;
23163;SDS011;31429;42.674;23.350;2024-03-02T00:40:08;42.80;;;30.60;;
23163;SDS011;31429;42.674;23.350;2024-03-02T00:41:15;49.22;;;32.65;;
23163;SDS011;31429;42.674;23.350;2024-03-02T00:42:37;44.05;;;30.80;;
23163;SDS011;31429;42.674;23.350;2024-03-02T00:43:47;41.90;;;29.10;;
23163;SDS011;31429;42.674;23.350;2024-03-02T00:45:28;43.55;;;29.90;;
23163;SDS011;31429;42.674;23.350;2024-03-02T00:46:29;40.87;;;29.20;;
23163;SDS011;31429;42.674;23.350;2024-03-02T00:47:32;41.47;;;29.67;;
23163;SDS011;31429;42.674;23.350;2024-03-02T00:48:39;40.03;;;28.90;;
23163;SDS011;31429;42.674;23.350;2024-03-02T00:49:46;45.45;;;29.98;;
23163;SDS011;31429;42.674;23.350;2024-03-02T00:51:07;37.75;;;27.83;;
23163;SDS011;31429;42.674;23.350;2024-03-02T00:52:51;34.53;;;25.70;;
23163;SDS011;31429;42.674;23.350;2024-03-02T00:53:52;35.93;;;25.67;;
23163;SDS011;31429;42.674;23.350;2024-03-02T00:55:35;42.20;;;27.67;;
23163;SDS011;31429;42.674;23.350;2024-03-02T00:56:56;44.78;;;29.23;;
23163;SDS011;31429;42.674;23.350;2024-03-02T00:58:17;39.03;;;26.83;;
23163;SDS011;31429;42.674;23.350;2024-03-02T00:59:19;40.53;;;27.13;;
23163;SDS011;31429;42.674;23.350;2024-03-02T01:00:20;41.50;;;28.63;;
23163;SDS011;31429;42.674;23.350;2024-03-02T01:01:21;37.63;;;28.23;;
23163;SDS011;31429;42.674;23.350;2024-03-02T01:02:21;39.23;;;27.80;;
23163;SDS011;31429;42.674;23.350;2024-03-02T01:03:22;41.90;;;27.40;;
23163;SDS011;31429;42.674;23.350;2024-03-02T01:04:23;37.37;;;27.80;;
23163;SDS011;31429;42.674;23.350;2024-03-02T01:05:24;47.97;;;30.53;;
23163;SDS011;31429;42.674;23.350;2024-03-02T01:06:24;39.77;;;29.23;;
23163;SDS011;31429;42.674;23.350;2024-03-02T01:07:25;43.37;;;29.17;;
23163;SDS011;31429;42.674;23.350;2024-03-02T01:08:26;36.83;;;26.87;;
23163;SDS011;31429;42.674;23.350;2024-03-02T01:09:27;38.70;;;26.93;;
23163;SDS011;31429;42.674;23.350;2024-03-02T01:10:27;42.30;;;27.77;;
23163;SDS011;31429;42.674;23.350;2024-03-02T01:11:29;44.27;;;28.87;;
23163;SDS011;31429;42.674;23.350;2024-03-02T01:12:30;38.95;;;27.67;;
23163;SDS011;31429;42.674;23.350;2024-03-02T01:13:31;38.47;;;27.33;;
23163;SDS011;31429;42.674;23.350;2024-03-02T01:14:53;40.17;;;27.40;;
23163;SDS011;31429;42.674;23.350;2024-03-02T01:15:54;38.72;;;27.58;;
23163;SDS011;31429;42.674;23.350;2024-03-02T01:16:55;38.47;;;27.30;;
23163;SDS011;31429;42.674;23.350;2024-03-02T01:17:56;38.73;;;27.83;;
23163;SDS011;31429;42.674;23.350;2024-03-02T01:18:57;38.33;;;28.45;;
23163;SDS011;31429;42.674;23.350;2024-03-02T01:19:58;43.93;;;28.60;;
23163;SDS011;31429;42.674;23.350;2024-03-02T01:20:59;44.73;;;28.33;;
23163;SDS011;31429;42.674;23.350;2024-03-02T01:21:59;44.53;;;30.43;;
23163;SDS011;31429;42.674;23.350;2024-03-02T01:23:00;47.53;;;32.10;;
23163;SDS011;31429;42.674;23.350;2024-03-02T01:24:01;43.27;;;29.33;;
23163;SDS011;31429;42.674;23.350;2024-03-02T01:25:02;49.10;;;30.63;;
23163;SDS011;31429;42.674;23.350;2024-03-02T01:26:03;48.72;;;30.20;;
23163;SDS011;31429;42.674;23.350;2024-03-02T01:27:04;44.00;;;29.10;;
23163;SDS011;31429;42.674;23.350;2024-03-02T01:28:05;40.55;;;28.08;;
23163;SDS011;31429;42.674;23.350;2024-03-02T01:29:06;40.13;;;27.42;;
23163;SDS011;31429;42.674;23.350;2024-03-02T01:30:09;39.17;;;27.37;;
23163;SDS011;31429;42.674;23.350;2024-03-02T01:31:30;37.08;;;27.08;;
23163;SDS011;31429;42.674;23.350;2024-03-02T01:32:31;39.13;;;27.47;;
23163;SDS011;31429;42.674;23.350;2024-03-02T01:33:31;35.27;;;26.37;;
23163;SDS011;31429;42.674;23.350;2024-03-02T01:34:32;38.37;;;26.17;;
23163;SDS011;31429;42.674;23.350;2024-03-02T01:35:33;40.50;;;27.47;;
23163;SDS011;31429;42.674;23.350;2024-03-02T01:36:53;38.22;;;26.27;;
23163;SDS011;31429;42.674;23.350;2024-03-02T01:37:54;40.37;;;27.17;;
23163;SDS011;31429;42.674;23.350;2024-03-02T01:38:55;40.80;;;27.77;;
23163;SDS011;31429;42.674;23.350;2024-03-02T01:39:56;41.77;;;28.80;;
23163;SDS011;31429;42.674;23.350;2024-03-02T01:40:56;40.17;;;28.07;;
23163;SDS011;31429;42.674;23.350;2024-03-02T01:42:17;41.88;;;29.77;;
23163;SDS011;31429;42.674;23.350;2024-03-02T01:43:18;40.87;;;28.50;;
23163;SDS011;31429;42.674;23.350;2024-03-02T01:44:19;41.53;;;27.87;;
23163;SDS011;31429;42.674;23.350;2024-03-02T01:45:21;40.27;;;29.13;;
23163;SDS011;31429;42.674;23.350;2024-03-02T01:46:22;41.17;;;28.92;;
23163;SDS011;31429;42.674;23.350;2024-03-02T01:47:23;45.03;;;29.93;;
23163;SDS011;31429;42.674;23.350;2024-03-02T01:48:23;41.90;;;28.47;;
23163;SDS011;31429;42.674;23.350;2024-03-02T01:49:24;42.93;;;28.00;;
23163;SDS011;31429;42.674;23.350;2024-03-02T01:50:25;44.60;;;31.37;;
23163;SDS011;31429;42.674;23.350;2024-03-02T01:51:27;42.90;;;29.02;;
23163;SDS011;31429;42.674;23.350;2024-03-02T01:52:28;45.07;;;30.33;;
23163;SDS011;31429;42.674;23.350;2024-03-02T01:53:29;45.13;;;30.52;;
23163;SDS011;31429;42.674;23.350;2024-03-02T01:54:30;44.27;;;30.97;;
23163;SDS011;31429;42.674;23.350;2024-03-02T01:55:31;47.17;;;32.10;;
23163;SDS011;31429;42.674;23.350;2024-03-02T01:56:33;46.70;;;31.35;;
23163;SDS011;31429;42.674;23.350;2024-03-02T01:57:34;46.87;;;32.00;;
23163;SDS011;31429;42.674;23.350;2024-03-02T01:58:34;46.47;;;31.07;;
23163;SDS011;31429;42.674;23.350;2024-03-02T01:59:36;50.25;;;33.45;;
23163;SDS011;31429;42.674;23.350;2024-03-02T02:00:38;50.03;;;32.03;;
23163;SDS011;31429;42.674;23.350;2024-03-02T02:01:39;49.60;;;32.88;;
23163;SDS011;31429;42.674;23.350;2024-03-02T02:02:39;48.30;;;32.27;;
23163;SDS011;31429;42.674;23.350;2024-03-02T02:03:41;47.80;;;32.92;;
23163;SDS011;31429;42.674;23.350;2024-03-02T02:04:41;48.50;;;33.13;;
23163;SDS011;31429;42.674;23.350;2024-03-02T02:05:42;47.70;;;33.05;;
23163;SDS011;31429;42.674;23.350;2024-03-02T02:06:43;48.70;;;33.53;;
23163;SDS011;31429;42.674;23.350;2024-03-02T02:07:44;51.70;;;35.10;;
23163;SDS011;31429;42.674;23.350;2024-03-02T02:08:46;48.67;;;33.03;;
23163;SDS011;31429;42.674;23.350;2024-03-02T02:09:47;48.70;;;32.72;;
23163;SDS011;31429;42.674;23.350;2024-03-02T02:10:48;48.87;;;33.30;;
23163;SDS011;31429;42.674;23.350;2024-03-02T02:12:09;47.60;;;31.92;;
23163;SDS011;31429;42.674;23.350;2024-03-02T02:13:10;55.17;;;36.90;;
23163;SDS011;31429;42.674;23.350;2024-03-02T02:14:11;53.47;;;35.13;;
23163;SDS011;31429;42.674;23.350;2024-03-02T02:15:22;53.50;;;33.50;;
23163;SDS011;31429;42.674;23.350;2024-03-02T02:16:24;51.45;;;33.45;;
23163;SDS011;31429;42.674;23.350;2024-03-02T02:17:25;49.97;;;35.20;;
23163;SDS011;31429;42.674;23.350;2024-03-02T02:18:26;54.23;;;35.30;;
23163;SDS011;31429;42.674;23.350;2024-03-02T02:19:47;48.90;;;33.92;;
23163;SDS011;31429;42.674;23.350;2024-03-02T02:20:48;47.13;;;32.67;;
23163;SDS011;31429;42.674;23.350;2024-03-02T02:21:50;50.17;;;34.73;;
23163;SDS011;31429;42.674;23.350;2024-03-02T02:22:57;51.45;;;33.88;;
23163;SDS011;31429;42.674;23.350;2024-03-02T02:23:58;51.85;;;34.28;;
23163;SDS011;31429;42.674;23.350;2024-03-02T02:24:59;49.57;;;34.73;;
23163;SDS011;31429;42.674;23.350;2024-03-02T02:26:00;47.80;;;33.43;;
23163;SDS011;31429;42.674;23.350;2024-03-02T02:27:02;54.13;;;35.47;;
23163;SDS011;31429;42.674;23.350;2024-03-02T02:28:03;50.90;;;35.00;;
23163;SDS011;31429;42.674;23.350;2024-03-02T02:29:04;52.40;;;35.25;;
23163;SDS011;31429;42.674;23.350;2024-03-02T02:30:06;58.37;;;36.57;;
23163;SDS011;31429;42.674;23.350;2024-03-02T02:31:28;52.65;;;34.97;;
23163;SDS011;31429;42.674;23.350;2024-03-02T02:32:48;50.10;;;34.47;;
23163;SDS011;31429;42.674;23.350;2024-03-02T02:33:49;54.53;;;35.87;;
23163;SDS011;31429;42.674;23.350;2024-03-02T02:34:52;56.70;;;35.27;;
23163;SDS011;31429;42.674;23.350;2024-03-02T02:35:52;51.67;;;35.58;;
23163;SDS011;31429;42.674;23.350;2024-03-02T02:36:55;53.70;;;35.33;;
23163;SDS011;31429;42.674;23.350;2024-03-02T02:37:56;54.58;;;36.55;;
23163;SDS011;31429;42.674;23.350;2024-03-02T02:38:59;50.88;;;35.22;;
23163;SDS011;31429;42.674;23.350;2024-03-02T02:40:03;56.92;;;35.33;;
23163;SDS011;31429;42.674;23.350;2024-03-02T02:41:05;55.75;;;36.25;;
23163;SDS011;31429;42.674;23.350;2024-03-02T02:42:06;57.25;;;36.20;;
23163;SDS011;31429;42.674;23.350;2024-03-02T02:43:07;50.43;;;35.03;;
23163;SDS011;31429;42.674;23.350;2024-03-02T02:44:08;55.53;;;36.93;;
23163;SDS011;31429;42.674;23.350;2024-03-02T02:45:12;54.40;;;35.83;;
23163;SDS011;31429;42.674;23.350;2024-03-02T02:46:15;56.30;;;36.90;;
23163;SDS011;31429;42.674;23.350;2024-03-02T02:47:15;52.23;;;35.07;;
23163;SDS011;31429;42.674;23.350;2024-03-02T02:48:16;56.53;;;36.63;;
23163;SDS011;31429;42.674;23.350;2024-03-02T02:49:17;48.07;;;34.40;;
23163;SDS011;31429;42.674;23.350;2024-03-02T02:50:18;53.37;;;35.30;;
23163;SDS011;31429;42.674;23.350;2024-03-02T02:51:18;51.40;;;35.23;;
23163;SDS011;31429;42.674;23.350;2024-03-02T02:52:21;56.50;;;36.23;;
23163;SDS011;31429;42.674;23.350;2024-03-02T02:53:21;54.50;;;35.88;;
23163;SDS011;31429;42.674;23.350;2024-03-02T02:54:22;53.20;;;35.47;;
23163;SDS011;31429;42.674;23.350;2024-03-02T02:55:23;53.63;;;36.27;;
23163;SDS011;31429;42.674;23.350;2024-03-02T02:56:24;51.10;;;35.50;;
23163;SDS011;31429;42.674;23.350;2024-03-02T02:57:24;55.43;;;36.87;;
23163;SDS011;31429;42.674;23.350;2024-03-02T02:58:25;58.90;;;37.43;;
23163;SDS011;31429;42.674;23.350;2024-03-02T02:59:26;52.93;;;36.10;;
23163;SDS011;31429;42.674;23.350;2024-03-02T03:00:27;54.57;;;35.63;;
23163;SDS011;31429;42.674;23.350;2024-03-02T03:01:28;53.03;;;35.70;;
23163;SDS011;31429;42.674;23.350;2024-03-02T03:02:28;53.40;;;36.33;;
23163;SDS011;31429;42.674;23.350;2024-03-02T03:03:29;54.40;;;37.10;;
23163;SDS011;31429;42.674;23.350;2024-03-02T03:04:30;55.00;;;35.93;;
23163;SDS011;31429;42.674;23.350;2024-03-02T03:05:31;55.67;;;36.13;;
23163;SDS011;31429;42.674;23.350;2024-03-02T03:06:31;57.97;;;37.43;;
23163;SDS011;31429;42.674;23.350;2024-03-02T03:07:34;54.73;;;36.83;;
23163;SDS011;31429;42.674;23.350;2024-03-02T03:08:54;54.33;;;36.33;;
23163;SDS011;31429;42.674;23.350;2024-03-02T03:09:55;54.97;;;37.50;;
23163;SDS011;31429;42.674;23.350;2024-03-02T03:10:56;57.37;;;37.60;;
23163;SDS011;31429;42.674;23.350;2024-03-02T03:11:56;67.63;;;44.87;;
23163;SDS011;31429;42.674;23.350;2024-03-02T03:12:57;65.10;;;45.77;;
23163;SDS011;31429;42.674;23.350;2024-03-02T03:13:58;57.40;;;36.53;;
23163;SDS011;31429;42.674;23.350;2024-03-02T03:15:19;52.83;;;36.13;;
23163;SDS011;31429;42.674;23.350;2024-03-02T03:16:19;54.80;;;37.50;;
23163;SDS011;31429;42.674;23.350;2024-03-02T03:17:40;52.05;;;34.72;;
23163;SDS011;31429;42.674;23.350;2024-03-02T03:18:41;57.50;;;37.70;;
23163;SDS011;31429;42.674;23.350;2024-03-02T03:19:42;56.10;;;36.97;;
23163;SDS011;31429;42.674;23.350;2024-03-02T03:20:43;60.07;;;37.23;;
23163;SDS011;31429;42.674;23.350;2024-03-02T03:21:43;53.17;;;36.97;;
23163;SDS011;31429;42.674;23.350;2024-03-02T03:22:46;55.00;;;36.53;;
23163;SDS011;31429;42.674;23.350;2024-03-02T03:23:46;56.58;;;36.55;;
23163;SDS011;31429;42.674;23.350;2024-03-02T03:24:47;50.07;;;35.03;;
23163;SDS011;31429;42.674;23.350;2024-03-02T03:25:48;56.37;;;37.07;;
23163;SDS011;31429;42.674;23.350;2024-03-02T03:26:48;55.37;;;36.93;;
23163;SDS011;31429;42.674;23.350;2024-03-02T03:27:49;55.80;;;36.63;;
23163;SDS011;31429;42.674;23.350;2024-03-02T03:29:10;56.03;;;37.70;;
23163;SDS011;31429;42.674;23.350;2024-03-02T03:30:11;55.43;;;36.13;;
23163;SDS011;31429;42.674;23.350;2024-03-02T03:31:12;56.08;;;36.03;;
23163;SDS011;31429;42.674;23.350;2024-03-02T03:32:13;57.80;;;38.40;;
23163;SDS011;31429;42.674;23.350;2024-03-02T03:33:14;57.28;;;38.50;;
23163;SDS011;31429;42.674;23.350;2024-03-02T03:34:15;59.70;;;38.00;;
23163;SDS011;31429;42.674;23.350;2024-03-02T03:35:16;57.38;;;38.00;;
23163;SDS011;31429;42.674;23.350;2024-03-02T03:36:18;54.90;;;37.50;;
23163;SDS011;31429;42.674;23.350;2024-03-02T03:37:19;60.30;;;38.83;;
23163;SDS011;31429;42.674;23.350;2024-03-02T03:38:21;53.40;;;36.33;;
23163;SDS011;31429;42.674;23.350;2024-03-02T03:39:22;54.63;;;36.60;;
23163;SDS011;31429;42.674;23.350;2024-03-02T03:40:23;55.57;;;36.70;;
23163;SDS011;31429;42.674;23.350;2024-03-02T03:41:23;55.50;;;36.93;;
23163;SDS011;31429;42.674;23.350;2024-03-02T03:42:24;53.77;;;36.53;;
23163;SDS011;31429;42.674;23.350;2024-03-02T03:43:25;54.03;;;35.60;;
23163;SDS011;31429;42.674;23.350;2024-03-02T03:44:26;55.22;;;37.63;;
23163;SDS011;31429;42.674;23.350;2024-03-02T03:45:27;54.03;;;36.80;;
23163;SDS011;31429;42.674;23.350;2024-03-02T03:46:27;54.83;;;36.20;;
23163;SDS011;31429;42.674;23.350;2024-03-02T03:47:28;54.30;;;35.77;;
23163;SDS011;31429;42.674;23.350;2024-03-02T03:48:29;56.70;;;36.87;;
23163;SDS011;31429;42.674;23.350;2024-03-02T03:49:30;53.42;;;36.33;;
23163;SDS011;31429;42.674;23.350;2024-03-02T03:50:31;55.67;;;36.37;;
23163;SDS011;31429;42.674;23.350;2024-03-02T03:51:32;54.53;;;36.20;;
23163;SDS011;31429;42.674;23.350;2024-03-02T03:52:33;51.27;;;35.07;;
23163;SDS011;31429;42.674;23.350;2024-03-02T03:53:35;53.37;;;35.77;;
23163;SDS011;31429;42.674;23.350;2024-03-02T03:54:36;52.53;;;36.60;;
23163;SDS011;31429;42.674;23.350;2024-03-02T03:55:38;49.58;;;33.40;;
23163;SDS011;31429;42.674;23.350;2024-03-02T03:56:39;54.73;;;36.43;;
23163;SDS011;31429;42.674;23.350;2024-03-02T03:57:40;50.60;;;33.97;;
23163;SDS011;31429;42.674;23.350;2024-03-02T03:58:40;53.07;;;35.63;;
23163;SDS011;31429;42.674;23.350;2024-03-02T03:59:41;49.50;;;35.17;;
23163;SDS011;31429;42.674;23.350;2024-03-02T04:00:42;52.25;;;35.45;;
23163;SDS011;31429;42.674;23.350;2024-03-02T04:01:43;48.83;;;33.90;;
23163;SDS011;31429;42.674;23.350;2024-03-02T04:02:44;53.70;;;35.47;;
23163;SDS011;31429;42.674;23.350;2024-03-02T04:03:45;54.07;;;35.37;;
23163;SDS011;31429;42.674;23.350;2024-03-02T04:04:45;52.27;;;35.20;;
23163;SDS011;31429;42.674;23.350;2024-03-02T04:05:46;49.77;;;35.47;;
23163;SDS011;31429;42.674;23.350;2024-03-02T04:06:47;54.37;;;37.17;;
23163;SDS011;31429;42.674;23.350;2024-03-02T04:07:48;53.50;;;35.97;;
23163;SDS011;31429;42.674;23.350;2024-03-02T04:08:50;52.40;;;36.40;;
23163;SDS011;31429;42.674;23.350;2024-03-02T04:09:50;58.47;;;38.90;;
23163;SDS011;31429;42.674;23.350;2024-03-02T04:10:51;57.47;;;36.73;;
23163;SDS011;31429;42.674;23.350;2024-03-02T04:11:52;51.93;;;35.30;;
23163;SDS011;31429;42.674;23.350;2024-03-02T04:12:53;53.93;;;35.73;;
23163;SDS011;31429;42.674;23.350;2024-03-02T04:13:54;50.83;;;35.10;;
23163;SDS011;31429;42.674;23.350;2024-03-02T04:14:54;55.60;;;36.27;;
23163;SDS011;31429;42.674;23.350;2024-03-02T04:15:55;56.47;;;37.53;;
23163;SDS011;31429;42.674;23.350;2024-03-02T04:16:56;51.17;;;36.40;;
23163;SDS011;31429;42.674;23.350;2024-03-02T04:17:57;55.23;;;36.37;;
23163;SDS011;31429;42.674;23.350;2024-03-02T04:18:57;50.40;;;35.90;;
23163;SDS011;31429;42.674;23.350;2024-03-02T04:19:58;54.87;;;36.27;;
23163;SDS011;31429;42.674;23.350;2024-03-02T04:20:59;53.65;;;37.22;;
23163;SDS011;31429;42.674;23.350;2024-03-02T04:22:00;52.87;;;36.47;;
23163;SDS011;31429;42.674;23.350;2024-03-02T04:23:01;60.03;;;38.93;;
23163;SDS011;31429;42.674;23.350;2024-03-02T04:24:03;58.17;;;38.43;;
23163;SDS011;31429;42.674;23.350;2024-03-02T04:25:04;58.83;;;39.00;;
23163;SDS011;31429;42.674;23.350;2024-03-02T04:26:07;57.50;;;38.78;;
23163;SDS011;31429;42.674;23.350;2024-03-02T04:27:08;56.63;;;38.73;;
23163;SDS011;31429;42.674;23.350;2024-03-02T04:28:08;57.20;;;38.20;;
23163;SDS011;31429;42.674;23.350;2024-03-02T04:29:09;57.53;;;37.87;;
23163;SDS011;31429;42.674;23.350;2024-03-02T04:30:10;57.30;;;38.83;;
23163;SDS011;31429;42.674;23.350;2024-03-02T04:31:11;60.00;;;38.03;;
23163;SDS011;31429;42.674;23.350;2024-03-02T04:32:12;56.33;;;36.77;;
23163;SDS011;31429;42.674;23.350;2024-03-02T04:33:13;52.57;;;35.93;;
23163;SDS011;31429;42.674;23.350;2024-03-02T04:34:14;52.10;;;36.17;;
23163;SDS011;31429;42.674;23.350;2024-03-02T04:35:14;56.10;;;36.07;;
23163;SDS011;31429;42.674;23.350;2024-03-02T04:36:15;54.03;;;36.40;;
23163;SDS011;31429;42.674;23.350;2024-03-02T04:37:16;52.50;;;33.93;;
23163;SDS011;31429;42.674;23.350;2024-03-02T04:38:17;51.77;;;34.53;;
23163;SDS011;31429;42.674;23.350;2024-03-02T04:39:19;53.80;;;35.40;;
23163;SDS011;31429;42.674;23.350;2024-03-02T04:40:19;55.42;;;35.80;;
23163;SDS011;31429;42.674;23.350;2024-03-02T04:41:20;54.13;;;36.77;;
23163;SDS011;31429;42.674;23.350;2024-03-02T04:42:21;57.93;;;36.87;;
23163;SDS011;31429;42.674;23.350;2024-03-02T04:43:22;53.35;;;36.45;;
23163;SDS011;31429;42.674;23.350;2024-03-02T04:44:23;57.67;;;36.90;;
23163;SDS011;31429;42.674;23.350;2024-03-02T04:45:24;59.00;;;39.20;;
23163;SDS011;31429;42.674;23.350;2024-03-02T04:46:24;55.23;;;36.13;;
23163;SDS011;31429;42.674;23.350;2024-03-02T04:47:25;58.17;;;37.50;;
23163;SDS011;31429;42.674;23.350;2024-03-02T04:48:26;58.93;;;39.07;;
23163;SDS011;31429;42.674;23.350;2024-03-02T04:49:27;57.17;;;36.97;;
23163;SDS011;31429;42.674;23.350;2024-03-02T04:50:28;54.47;;;36.37;;
23163;SDS011;31429;42.674;23.350;2024-03-02T04:51:29;62.00;;;38.33;;
23163;SDS011;31429;42.674;23.350;2024-03-02T04:52:29;56.93;;;37.67;;
23163;SDS011;31429;42.674;23.350;2024-03-02T04:53:30;59.97;;;38.57;;
23163;SDS011;31429;42.674;23.350;2024-03-02T04:54:32;55.90;;;39.30;;
23163;SDS011;31429;42.674;23.350;2024-03-02T04:55:35;58.15;;;37.13;;
23163;SDS011;31429;42.674;23.350;2024-03-02T04:56:55;56.33;;;36.92;;
23163;SDS011;31429;42.674;23.350;2024-03-02T04:57:56;60.17;;;38.80;;
23163;SDS011;31429;42.674;23.350;2024-03-02T04:58:57;60.43;;;37.70;;
23163;SDS011;31429;42.674;23.350;2024-03-02T04:59:57;60.10;;;38.57;;
23163;SDS011;31429;42.674;23.350;2024-03-02T05:00:58;60.93;;;39.73;;
23163;SDS011;31429;42.674;23.350;2024-03-02T05:01:59;62.73;;;40.93;;
23163;SDS011;31429;42.674;23.350;2024-03-02T05:03:00;66.63;;;40.03;;
23163;SDS011;31429;42.674;23.350;2024-03-02T05:04:01;60.53;;;39.38;;
23163;SDS011;31429;42.674;23.350;2024-03-02T05:05:02;60.77;;;39.63;;
23163;SDS011;31429;42.674;23.350;2024-03-02T05:06:03;61.83;;;39.70;;
23163;SDS011;31429;42.674;23.350;2024-03-02T05:07:04;64.43;;;41.42;;
23163;SDS011;31429;42.674;23.350;2024-03-02T05:08:05;72.65;;;42.15;;
23163;SDS011;31429;42.674;23.350;2024-03-02T05:09:06;64.93;;;40.78;;
23163;SDS011;31429;42.674;23.350;2024-03-02T05:10:09;64.20;;;41.37;;
23163;SDS011;31429;42.674;23.350;2024-03-02T05:11:10;68.40;;;46.00;;
23163;SDS011;31429;42.674;23.350;2024-03-02T05:12:46;66.95;;;42.88;;
23163;SDS011;31429;42.674;23.350;2024-03-02T05:13:47;67.57;;;41.83;;
23163;SDS011;31429;42.674;23.350;2024-03-02T05:14:47;71.97;;;43.00;;
23163;SDS011;31429;42.674;23.350;2024-03-02T05:15:48;74.73;;;44.47;;
23163;SDS011;31429;42.674;23.350;2024-03-02T05:16:49;73.47;;;43.90;;
23163;SDS011;31429;42.674;23.350;2024-03-02T05:17:50;74.93;;;44.73;;
23163;SDS011;31429;42.674;23.350;2024-03-02T05:18:51;78.35;;;46.10;;
23163;SDS011;31429;42.674;23.350;2024-03-02T05:19:52;78.13;;;45.27;;
23163;SDS011;31429;42.674;23.350;2024-03-02T05:20:52;72.93;;;45.73;;
23163;SDS011;31429;42.674;23.350;2024-03-02T05:21:53;73.07;;;44.63;;
23163;SDS011;31429;42.674;23.350;2024-03-02T05:22:54;70.55;;;43.08;;
23163;SDS011;31429;42.674;23.350;2024-03-02T05:23:55;74.17;;;44.50;;
23163;SDS011;31429;42.674;23.350;2024-03-02T05:24:56;75.03;;;45.38;;
23163;SDS011;31429;42.674;23.350;2024-03-02T05:26:00;77.40;;;45.72;;
23163;SDS011;31429;42.674;23.350;2024-03-02T05:27:01;71.85;;;44.67;;
23163;SDS011;31429;42.674;23.350;2024-03-02T05:28:02;71.30;;;44.47;;
23163;SDS011;31429;42.674;23.350;2024-03-02T05:29:03;73.97;;;45.30;;
23163;SDS011;31429;42.674;23.350;2024-03-02T05:30:04;72.23;;;44.40;;
23163;SDS011;31429;42.674;23.350;2024-03-02T05:31:06;73.22;;;45.95;;
23163;SDS011;31429;42.674;23.350;2024-03-02T05:32:10;68.65;;;42.15;;
23163;SDS011;31429;42.674;23.350;2024-03-02T05:33:11;71.30;;;44.43;;
23163;SDS011;31429;42.674;23.350;2024-03-02T05:34:11;79.67;;;43.93;;
23163;SDS011;31429;42.674;23.350;2024-03-02T05:35:12;73.67;;;43.17;;
23163;SDS011;31429;42.674;23.350;2024-03-02T05:36:13;73.50;;;44.47;;
23163;SDS011;31429;42.674;23.350;2024-03-02T05:37:14;70.37;;;44.37;;
23163;SDS011;31429;42.674;23.350;2024-03-02T05:38:15;74.80;;;44.27;;
23163;SDS011;31429;42.674;23.350;2024-03-02T05:39:15;69.80;;;43.47;;
23163;SDS011;31429;42.674;23.350;2024-03-02T05:40:16;71.73;;;44.77;;
23163;SDS011;31429;42.674;23.350;2024-03-02T05:41:18;73.63;;;43.30;;
23163;SDS011;31429;42.674;23.350;2024-03-02T05:42:19;73.43;;;43.97;;
23163;SDS011;31429;42.674;23.350;2024-03-02T05:43:20;75.40;;;43.50;;
23163;SDS011;31429;42.674;23.350;2024-03-02T05:44:21;73.53;;;43.30;;
23163;SDS011;31429;42.674;23.350;2024-03-02T05:45:22;72.65;;;43.28;;
23163;SDS011;31429;42.674;23.350;2024-03-02T05:46:23;74.87;;;44.10;;
23163;SDS011;31429;42.674;23.350;2024-03-02T05:47:24;70.30;;;42.27;;
23163;SDS011;31429;42.674;23.350;2024-03-02T05:48:24;68.77;;;41.63;;
23163;SDS011;31429;42.674;23.350;2024-03-02T05:49:25;76.33;;;42.93;;
23163;SDS011;31429;42.674;23.350;2024-03-02T05:50:26;75.77;;;42.77;;
23163;SDS011;31429;42.674;23.350;2024-03-02T05:51:26;75.23;;;43.70;;
23163;SDS011;31429;42.674;23.350;2024-03-02T05:52:27;78.67;;;45.23;;
23163;SDS011;31429;42.674;23.350;2024-03-02T05:53:28;77.37;;;43.90;;
23163;SDS011;31429;42.674;23.350;2024-03-02T05:54:29;73.37;;;44.67;;
23163;SDS011;31429;42.674;23.350;2024-03-02T05:55:29;70.80;;;42.63;;
23163;SDS011;31429;42.674;23.350;2024-03-02T05:56:32;82.05;;;44.17;;
23163;SDS011;31429;42.674;23.350;2024-03-02T05:57:33;79.72;;;44.72;;
23163;SDS011;31429;42.674;23.350;2024-03-02T05:58:43;76.85;;;43.13;;
23163;SDS011;31429;42.674;23.350;2024-03-02T06:00:03;72.53;;;43.42;;
23163;SDS011;31429;42.674;23.350;2024-03-02T06:01:24;73.32;;;42.83;;
23163;SDS011;31429;42.674;23.350;2024-03-02T06:02:45;80.63;;;43.90;;
23163;SDS011;31429;42.674;23.350;2024-03-02T06:03:46;77.40;;;44.97;;
23163;SDS011;31429;42.674;23.350;2024-03-02T06:04:47;78.43;;;44.83;;
23163;SDS011;31429;42.674;23.350;2024-03-02T06:05:48;74.87;;;43.27;;